createdAt,value
2019-04-03T03:55:25.486Z,63.10
2019-04-03T03:57:56.380Z,14.65
2019-04-03T04:00:27.017Z,78.00
2019-04-03T04:02:57.660Z,17.20
2019-04-03T04:05:28.432Z,16.12
2019-04-03T04:07:59.158Z,13.32
2019-04-03T04:10:29.765Z,24.47
2019-04-03T04:13:00.398Z,22.52
2019-04-03T04:15:31.723Z,16.45
2019-04-03T04:18:03.869Z,16.00
2019-04-03T04:20:37.078Z,19.32
2019-04-03T04:23:07.349Z,14.53
2019-04-03T04:25:37.961Z,13.32
2019-04-03T04:28:09.266Z,13.65
2019-04-03T04:30:42.392Z,12.75
2019-04-03T04:33:13.142Z,17.25
2019-04-03T04:35:44.134Z,13.95
2019-04-03T04:38:14.620Z,13.78
2019-04-03T04:40:45.250Z,13.68
2019-04-03T04:43:15.812Z,13.72
2019-04-03T04:45:46.558Z,13.03
2019-04-03T04:48:20.148Z,13.18
2019-04-03T04:50:49.827Z,18.27
2019-04-03T04:53:20.401Z,15.55
2019-04-03T04:55:51.460Z,14.83
2019-04-03T04:58:21.934Z,16.45
2019-04-03T05:00:53.483Z,16.45
2019-04-03T05:03:25.655Z,14.90
2019-04-03T05:05:58.473Z,15.88
2019-04-03T05:08:30.806Z,14.75
2019-04-03T05:11:01.754Z,31.33
2019-04-03T05:13:32.381Z,34.90
2019-04-03T05:16:02.950Z,46.50
2019-04-03T05:18:33.664Z,64.32
2019-04-03T05:21:04.800Z,87.40
2019-04-03T05:23:35.541Z,81.92
2019-04-03T05:26:06.070Z,46.28
2019-04-03T05:28:36.643Z,44.70
2019-04-03T05:31:08.149Z,27.40
2019-04-03T05:33:41.583Z,50.20
2019-04-03T05:36:11.980Z,49.50
2019-04-03T05:38:42.941Z,27.22
2019-04-03T05:41:13.898Z,31.35
2019-04-03T05:43:44.592Z,18.35
2019-04-03T05:46:15.175Z,32.03
2019-04-03T05:48:45.998Z,17.80
2019-04-03T05:51:18.238Z,29.23
2019-04-03T05:53:48.918Z,17.57
2019-04-03T05:56:19.483Z,25.85
2019-04-03T05:58:55.979Z,31.15
2019-04-03T06:01:22.509Z,35.98
2019-04-03T06:03:53.267Z,13.65
2019-04-03T06:06:23.967Z,19.42
2019-04-03T06:08:56.788Z,14.63
2019-04-03T06:11:27.803Z,19.80
2019-04-03T06:13:58.616Z,15.28
2019-04-03T06:16:29.382Z,14.85
2019-04-03T06:18:59.915Z,14.63
2019-04-03T06:21:30.542Z,14.45
2019-04-03T06:24:01.076Z,14.98
2019-04-03T06:26:31.786Z,16.57
2019-04-03T06:29:02.344Z,16.23
2019-04-03T06:31:33.101Z,20.30
2019-04-03T06:34:06.682Z,18.48
2019-04-03T06:36:36.043Z,33.15
2019-04-03T06:39:08.157Z,14.20
2019-04-03T06:41:41.651Z,21.15
2019-04-03T06:44:11.059Z,14.05
2019-04-03T06:46:41.690Z,14.05
2019-04-03T06:49:12.377Z,12.07
2019-04-03T06:51:43.294Z,14.18
2019-04-03T06:54:13.798Z,11.78
2019-04-03T06:56:44.554Z,13.10
2019-04-03T06:59:16.480Z,12.60
2019-04-03T07:01:47.748Z,12.45
2019-04-03T07:04:18.421Z,14.40
2019-04-03T07:06:49.138Z,13.05
2019-04-03T07:09:24.319Z,12.95
2019-04-03T07:11:52.016Z,13.43
2019-04-03T07:14:25.807Z,13.78
2019-04-03T07:16:55.125Z,14.25
2019-04-03T07:19:25.719Z,12.45
2019-04-03T07:21:56.444Z,13.50
2019-04-03T07:24:26.972Z,14.70
2019-04-03T07:26:57.671Z,14.35
2019-04-03T07:29:29.562Z,13.22
2019-04-03T07:32:00.206Z,14.55
2019-04-03T07:34:33.714Z,12.60
2019-04-03T07:37:03.250Z,12.37
2019-04-03T07:39:33.837Z,12.60
2019-04-03T07:42:04.513Z,12.35
2019-04-03T07:44:35.575Z,12.63
2019-04-03T07:47:06.482Z,16.60
2019-04-03T07:49:37.671Z,13.62
2019-04-03T07:52:12.514Z,13.58
2019-04-03T07:54:42.005Z,14.87
2019-04-03T07:57:12.483Z,12.18
2019-04-03T07:59:43.060Z,13.98
2019-04-03T08:02:13.703Z,13.35
2019-04-03T08:04:44.331Z,13.43
2019-04-03T08:07:14.808Z,13.40
2019-04-03T08:09:46.535Z,12.95
2019-04-03T08:12:18.573Z,12.35
2019-04-03T08:14:49.069Z,12.13
2019-04-03T08:17:20.016Z,11.70
2019-04-03T08:19:50.518Z,13.62
2019-04-03T08:22:21.331Z,14.13
2019-04-03T08:24:53.754Z,12.40
2019-04-03T08:27:24.845Z,12.55
2019-04-03T08:29:55.577Z,12.05
2019-04-03T08:32:26.057Z,10.85
2019-04-03T08:34:56.771Z,11.80
2019-04-03T08:37:30.155Z,13.30
2019-04-03T08:39:59.858Z,13.05
2019-04-03T08:42:32.398Z,11.57
2019-04-03T08:45:05.734Z,12.15
2019-04-03T08:47:37.401Z,12.55
2019-04-03T08:50:10.969Z,12.20
2019-04-03T08:52:41.630Z,11.28
2019-04-03T08:55:14.041Z,11.50
2019-04-03T08:57:46.494Z,14.00
2019-04-03T09:00:16.808Z,12.68
2019-04-03T09:02:47.634Z,13.80
2019-04-03T09:05:19.677Z,11.68
2019-04-03T09:07:50.819Z,12.82
2019-04-03T09:10:21.361Z,13.25
2019-04-03T09:12:52.019Z,12.73
2019-04-03T09:15:22.685Z,12.53
2019-04-03T09:17:53.283Z,11.95
2019-04-03T09:20:23.826Z,11.93
2019-04-03T09:22:54.574Z,11.10
2019-04-03T09:25:25.208Z,11.80
2019-04-03T09:27:56.041Z,11.03
2019-04-03T09:30:26.762Z,12.10
2019-04-03T09:32:59.942Z,11.15
2019-04-03T09:35:32.180Z,15.65
2019-04-03T09:38:02.240Z,13.75
2019-04-03T09:40:32.979Z,13.83
2019-04-03T09:43:03.745Z,14.90
2019-04-03T09:45:35.300Z,12.40
2019-04-03T09:48:06.306Z,12.55
2019-04-03T09:50:36.967Z,12.10
2019-04-03T09:53:07.581Z,13.68
2019-04-03T09:55:38.295Z,12.15
2019-04-03T09:58:09.343Z,13.05
2019-04-03T10:00:42.247Z,13.43
2019-04-03T10:03:12.781Z,13.10
2019-04-03T10:05:43.401Z,12.60
2019-04-03T10:08:13.990Z,11.97
2019-04-03T10:10:46.493Z,12.07
2019-04-03T10:13:17.257Z,12.05
2019-04-03T10:15:47.982Z,13.72
2019-04-03T10:18:21.889Z,12.07
2019-04-03T10:20:51.402Z,12.78
2019-04-03T10:23:22.229Z,12.37
2019-04-03T10:25:53.694Z,13.03
2019-04-03T10:28:25.510Z,12.33
2019-04-03T10:30:56.082Z,12.70
2019-04-03T10:33:26.823Z,12.20
2019-04-03T10:35:58.471Z,12.20
2019-04-03T10:38:29.018Z,12.95
2019-04-03T10:40:59.864Z,13.28
2019-04-03T10:43:30.583Z,13.43
2019-04-03T10:46:01.224Z,12.53
2019-04-03T10:48:34.777Z,13.48
2019-04-03T10:51:07.111Z,13.58
2019-04-03T10:53:37.637Z,13.75
2019-04-03T10:56:08.229Z,12.85
2019-04-03T10:58:42.257Z,11.65
2019-04-03T11:01:11.234Z,12.85
2019-04-03T11:03:41.899Z,13.10
2019-04-03T11:06:12.577Z,13.55
2019-04-03T11:08:43.472Z,13.08
2019-04-03T11:11:14.021Z,12.95
2019-04-03T11:13:44.930Z,13.35
2019-04-03T11:16:16.226Z,12.75
2019-04-03T11:18:57.731Z,12.75
2019-04-03T11:21:19.202Z,13.20
2019-04-03T11:23:50.177Z,13.30
2019-04-03T11:26:24.321Z,13.18
2019-04-03T11:28:53.880Z,13.08
2019-04-03T11:31:28.261Z,14.63
2019-04-03T11:33:57.203Z,12.65
2019-04-03T11:36:30.598Z,13.30
2019-04-03T11:39:11.133Z,13.45
2019-04-03T11:41:33.898Z,21.68
2019-04-03T11:44:04.631Z,12.20
2019-04-03T11:46:36.515Z,12.95
2019-04-03T11:49:07.141Z,13.20
2019-04-03T11:51:37.769Z,11.97
2019-04-03T11:54:08.824Z,12.28
2019-04-03T11:56:40.271Z,12.70
2019-04-03T11:59:10.992Z,12.13
2019-04-03T12:01:42.039Z,13.00
2019-04-03T12:04:13.502Z,13.13
2019-04-03T12:06:44.581Z,15.35
2019-04-03T12:09:15.122Z,12.80
2019-04-03T12:11:46.000Z,12.95
2019-04-03T12:14:17.130Z,11.80
2019-04-03T12:16:48.388Z,13.13
2019-04-03T12:19:19.295Z,12.63
2019-04-03T12:21:51.227Z,12.40
2019-04-03T12:24:21.948Z,12.82
2019-04-03T12:26:55.502Z,12.90
2019-04-03T12:29:24.831Z,12.80
2019-04-03T12:31:55.868Z,12.53
2019-04-03T12:34:26.730Z,11.68
2019-04-03T12:36:57.263Z,12.07
2019-04-03T12:39:28.150Z,12.25
2019-04-03T12:41:58.846Z,13.25
2019-04-03T12:44:29.966Z,13.05
2019-04-03T12:47:00.603Z,13.38
2019-04-03T12:49:31.280Z,12.90
2019-04-03T12:52:03.650Z,13.25
2019-04-03T12:54:35.491Z,12.05
2019-04-03T12:57:06.201Z,12.18
2019-04-03T12:59:37.986Z,13.13
2019-04-03T13:02:09.408Z,12.07
2019-04-03T13:04:40.554Z,12.60
2019-04-03T13:07:14.142Z,12.18
2019-04-03T13:09:43.727Z,12.65
2019-04-03T13:12:14.229Z,12.98
2019-04-03T13:14:45.177Z,11.80
2019-04-03T13:17:15.669Z,12.60
2019-04-03T13:19:46.320Z,12.13
2019-04-03T13:22:18.592Z,12.68
2019-04-03T13:24:49.679Z,12.00
2019-04-03T13:27:20.378Z,12.82
2019-04-03T13:29:51.376Z,12.33
2019-04-03T13:32:23.063Z,12.20
2019-04-03T13:34:54.094Z,13.15
2019-04-03T13:37:26.061Z,12.40
2019-04-03T13:39:56.527Z,15.72
2019-04-03T13:42:27.879Z,12.28
2019-04-03T13:45:00.176Z,13.88
2019-04-03T13:47:31.834Z,11.63
2019-04-03T13:50:03.574Z,12.05
2019-04-03T13:52:40.860Z,12.23
2019-04-03T13:55:27.887Z,12.37
2019-04-03T13:57:57.149Z,12.68
2019-04-03T14:00:27.738Z,13.68
2019-04-03T14:02:58.350Z,13.15
2019-04-03T14:05:32.849Z,11.63
2019-04-03T14:08:04.564Z,13.15
2019-04-03T14:10:34.608Z,12.20
2019-04-03T14:13:05.346Z,12.55
2019-04-03T14:15:36.186Z,13.28
2019-04-03T14:18:10.379Z,12.82
2019-04-03T14:20:41.308Z,11.68
2019-04-03T14:23:12.177Z,12.98
2019-04-03T14:25:42.655Z,11.08
2019-04-03T14:28:13.237Z,12.00
2019-04-03T14:30:45.199Z,12.78
2019-04-03T14:33:18.326Z,12.75
2019-04-03T14:35:52.529Z,12.37
2019-04-03T14:38:20.546Z,12.07
2019-04-03T14:40:51.105Z,11.45
2019-04-03T14:43:22.353Z,13.93
2019-04-03T14:45:53.359Z,37.55
2019-04-03T14:48:26.135Z,26.35
2019-04-03T14:50:56.446Z,17.52
2019-04-03T14:53:27.198Z,13.88
2019-04-03T14:55:58.180Z,13.05
2019-04-03T14:58:31.318Z,20.75
2019-04-03T15:01:02.474Z,17.82
2019-04-03T15:03:34.275Z,11.57
2019-04-03T15:06:05.075Z,11.38
2019-04-03T15:08:35.722Z,13.83
2019-04-03T15:11:06.669Z,13.62
2019-04-03T15:13:37.665Z,12.10
2019-04-03T15:16:08.700Z,13.55
2019-04-03T15:18:39.968Z,13.60
2019-04-03T15:21:12.297Z,11.70
2019-04-03T15:23:42.984Z,12.40
2019-04-03T15:26:13.621Z,12.47
2019-04-03T15:28:44.357Z,13.83
2019-04-03T15:31:14.987Z,12.37
2019-04-03T15:33:46.062Z,11.25
2019-04-03T15:36:17.143Z,14.00
2019-04-03T15:38:47.810Z,10.85
2019-04-03T15:41:18.484Z,13.93
2019-04-03T15:43:51.332Z,11.63
2019-04-03T15:46:22.019Z,11.65
2019-04-03T15:48:53.602Z,11.85
2019-04-03T15:51:25.268Z,14.07
2019-04-03T15:53:58.329Z,13.43
2019-04-03T15:56:28.127Z,14.05
2019-04-03T15:58:59.343Z,10.82
2019-04-03T16:01:29.993Z,13.30
2019-04-03T16:04:01.351Z,12.10
2019-04-03T16:06:34.789Z,12.58
2019-04-03T16:09:07.313Z,14.20
2019-04-03T16:11:39.069Z,14.05
2019-04-03T16:14:11.484Z,13.95
2019-04-03T16:16:42.168Z,22.37
2019-04-03T16:19:14.041Z,13.65
2019-04-03T16:21:44.869Z,16.15
2019-04-03T16:24:15.493Z,13.43
2019-04-03T16:26:46.152Z,15.80
2019-04-03T16:29:16.622Z,13.03
2019-04-03T16:31:47.648Z,19.70
2019-04-03T16:34:18.586Z,16.32
2019-04-03T16:36:50.251Z,26.12
2019-04-03T16:39:21.589Z,16.00
2019-04-03T16:41:52.307Z,41.70
2019-04-03T16:44:25.659Z,18.73
2019-04-03T16:46:56.414Z,19.65
2019-04-03T16:49:28.555Z,22.55
2019-04-03T16:51:59.479Z,17.95
2019-04-03T16:54:33.068Z,15.90
2019-04-03T16:57:19.108Z,15.80
2019-04-03T16:59:49.806Z,14.28
2019-04-03T17:02:23.880Z,13.25
2019-04-03T17:04:52.571Z,15.98
2019-04-03T17:07:23.514Z,21.68
2019-04-03T17:09:54.070Z,17.85
2019-04-03T17:12:24.664Z,17.75
2019-04-03T17:14:56.439Z,18.17
2019-04-03T17:17:27.258Z,20.70
2019-04-03T17:19:57.889Z,14.55
2019-04-03T17:22:28.536Z,22.05
2019-04-03T17:24:59.095Z,17.17
2019-04-03T17:27:30.709Z,19.48
2019-04-03T17:30:01.779Z,59.48
2019-04-03T17:32:32.809Z,32.63
2019-04-03T17:35:06.677Z,31.12
2019-04-03T17:37:36.020Z,21.20
2019-04-03T17:40:09.316Z,29.02
2019-04-03T17:42:40.276Z,19.60
2019-04-03T17:45:10.995Z,16.48
2019-04-03T17:47:41.623Z,25.37
2019-04-03T17:50:13.902Z,26.75
2019-04-03T17:52:44.483Z,26.62
2019-04-03T17:55:15.152Z,26.07
2019-04-03T17:57:45.801Z,29.12
2019-04-03T18:00:20.486Z,28.40
2019-04-03T18:02:50.642Z,23.12
2019-04-03T18:05:21.269Z,22.10
2019-04-03T18:07:51.915Z,28.75
2019-04-03T18:10:22.545Z,19.27
2019-04-03T18:12:53.182Z,16.50
2019-04-03T18:15:23.829Z,18.05
2019-04-03T18:17:54.543Z,18.73
2019-04-03T18:20:25.210Z,20.12
2019-04-03T18:22:55.811Z,18.98
2019-04-03T18:25:28.544Z,17.10
2019-04-03T18:27:58.622Z,15.88
2019-04-03T18:30:29.185Z,17.07
2019-04-03T18:32:59.881Z,22.40
2019-04-03T18:35:30.521Z,17.80
2019-04-03T18:38:01.149Z,14.45
2019-04-03T18:40:31.987Z,13.40
2019-04-03T18:43:02.733Z,14.80
2019-04-03T18:45:33.355Z,15.03
2019-04-03T18:48:04.079Z,15.45
2019-04-03T18:50:35.265Z,15.32
2019-04-03T18:53:09.547Z,14.23
2019-04-03T18:55:38.649Z,16.45
2019-04-03T18:58:09.487Z,16.55
2019-04-03T19:00:39.963Z,14.95
2019-04-03T19:03:10.659Z,14.38
